sensor_id;sensor_type;location;lat;lon;timestamp;pressure;altitude;pressure_sealevel;temperature;humidity
6028;BME280;3042;43.194;27.646;2024-02-15T00:01:53;102036.28;;;12.80;100.00
6028;BME280;3042;43.194;27.646;2024-02-15T00:04:20;102036.94;;;12.76;100.00
6028;BME280;3042;43.194;27.646;2024-02-15T00:06:48;102043.72;;;12.74;100.00
6028;BME280;3042;43.194;27.646;2024-02-15T00:09:15;102053.38;;;12.77;100.00
6028;BME280;3042;43.194;27.646;2024-02-15T00:11:42;101961.16;;;12.51;100.00
6028;BME280;3042;43.194;27.646;2024-02-15T00:14:09;102053.34;;;12.92;100.00
6028;BME280;3042;43.194;27.646;2024-02-15T00:16:39;101905.28;;;12.10;100.00
6028;BME280;3042;43.194;27.646;2024-02-15T00:19:06;102055.66;;;12.87;100.00
6028;BME280;3042;43.194;27.646;2024-02-15T00:21:34;102026.75;;;12.64;100.00
6028;BME280;3042;43.194;27.646;2024-02-15T00:24:01;102059.50;;;12.94;100.00
6028;BME280;3042;43.194;27.646;2024-02-15T00:26:29;101905.47;;;12.13;100.00
6028;BME280;3042;43.194;27.646;2024-02-15T00:28:57;102045.50;;;12.75;100.00
6028;BME280;3042;43.194;27.646;2024-02-15T00:31:25;102045.56;;;12.45;100.00
6028;BME280;3042;43.194;27.646;2024-02-15T00:33:54;102040.34;;;12.60;100.00
6028;BME280;3042;43.194;27.646;2024-02-15T00:36:21;101954.25;;;12.20;100.00
6028;BME280;3042;43.194;27.646;2024-02-15T00:38:48;102038.38;;;12.56;100.00
6028;BME280;3042;43.194;27.646;2024-02-15T00:41:17;102026.34;;;12.42;100.00
6028;BME280;3042;43.194;27.646;2024-02-15T00:43:45;101989.63;;;12.34;100.00
6028;BME280;3042;43.194;27.646;2024-02-15T00:46:12;102032.00;;;12.81;100.00
6028;BME280;3042;43.194;27.646;2024-02-15T00:48:40;102029.78;;;12.72;100.00
6028;BME280;3042;43.194;27.646;2024-02-15T00:51:08;102027.66;;;12.65;100.00
6028;BME280;3042;43.194;27.646;2024-02-15T00:53:35;102029.72;;;12.56;100.00
6028;BME280;3042;43.194;27.646;2024-02-15T00:56:03;102021.31;;;12.60;100.00
6028;BME280;3042;43.194;27.646;2024-02-15T00:58:31;102011.47;;;12.69;100.00
6028;BME280;3042;43.194;27.646;2024-02-15T01:00:58;102022.31;;;12.62;100.00
6028;BME280;3042;43.194;27.646;2024-02-15T01:03:25;102025.50;;;12.58;100.00
6028;BME280;3042;43.194;27.646;2024-02-15T01:05:52;102015.66;;;12.67;100.00
6028;BME280;3042;43.194;27.646;2024-02-15T01:08:21;102020.34;;;12.28;100.00
6028;BME280;3042;43.194;27.646;2024-02-15T01:10:49;102013.38;;;12.27;100.00
6028;BME280;3042;43.194;27.646;2024-02-15T01:13:16;102002.81;;;12.24;100.00
6028;BME280;3042;43.194;27.646;2024-02-15T01:15:43;102007.94;;;12.22;100.00
6028;BME280;3042;43.194;27.646;2024-02-15T01:18:11;102001.94;;;12.23;100.00
6028;BME280;3042;43.194;27.646;2024-02-15T01:20:39;101992.81;;;12.30;100.00
6028;BME280;3042;43.194;27.646;2024-02-15T01:23:06;101994.44;;;12.28;100.00
6028;BME280;3042;43.194;27.646;2024-02-15T01:25:35;101999.63;;;12.28;100.00
6028;BME280;3042;43.194;27.646;2024-02-15T01:28:02;101994.78;;;12.34;100.00
6028;BME280;3042;43.194;27.646;2024-02-15T01:30:29;101993.00;;;12.33;100.00
6028;BME280;3042;43.194;27.646;2024-02-15T01:32:57;102005.53;;;12.25;100.00
6028;BME280;3042;43.194;27.646;2024-02-15T01:35:25;102005.31;;;12.37;100.00
6028;BME280;3042;43.194;27.646;2024-02-15T01:37:52;102004.44;;;12.37;100.00
6028;BME280;3042;43.194;27.646;2024-02-15T01:40:20;102008.44;;;12.46;100.00
6028;BME280;3042;43.194;27.646;2024-02-15T01:42:49;102004.41;;;12.52;100.00
6028;BME280;3042;43.194;27.646;2024-02-15T01:45:16;101907.78;;;11.78;100.00
6028;BME280;3042;43.194;27.646;2024-02-15T01:47:43;102007.09;;;12.38;100.00
6028;BME280;3042;43.194;27.646;2024-02-15T01:50:12;101904.38;;;11.79;100.00
6028;BME280;3042;43.194;27.646;2024-02-15T01:52:40;102020.31;;;12.43;100.00
6028;BME280;3042;43.194;27.646;2024-02-15T01:55:09;102021.97;;;12.41;100.00
6028;BME280;3042;43.194;27.646;2024-02-15T01:57:37;101865.47;;;11.78;100.00
6028;BME280;3042;43.194;27.646;2024-02-15T02:00:07;101939.94;;;12.12;100.00
6028;BME280;3042;43.194;27.646;2024-02-15T02:02:35;102011.66;;;12.42;100.00
6028;BME280;3042;43.194;27.646;2024-02-15T02:05:05;101991.75;;;12.41;100.00
6028;BME280;3042;43.194;27.646;2024-02-15T02:07:33;101886.06;;;11.76;100.00
6028;BME280;3042;43.194;27.646;2024-02-15T02:10:01;102022.16;;;12.75;100.00
6028;BME280;3042;43.194;27.646;2024-02-15T02:12:28;102028.28;;;12.92;100.00
6028;BME280;3042;43.194;27.646;2024-02-15T02:14:56;101980.91;;;12.80;100.00
6028;BME280;3042;43.194;27.646;2024-02-15T02:17:25;102010.50;;;13.15;100.00
6028;BME280;3042;43.194;27.646;2024-02-15T02:19:52;101827.44;;;11.92;100.00
6028;BME280;3042;43.194;27.646;2024-02-15T02:22:20;102011.94;;;12.62;100.00
6028;BME280;3042;43.194;27.646;2024-02-15T02:25:00;101842.22;;;11.79;100.00
6028;BME280;3042;43.194;27.646;2024-02-15T02:27:29;101979.69;;;12.73;100.00
6028;BME280;3042;43.194;27.646;2024-02-15T02:29:57;102003.75;;;13.02;100.00
6028;BME280;3042;43.194;27.646;2024-02-15T02:32:25;102003.81;;;13.03;100.00
6028;BME280;3042;43.194;27.646;2024-02-15T02:34:52;102004.06;;;13.08;100.00
6028;BME280;3042;43.194;27.646;2024-02-15T02:37:23;102011.84;;;12.92;100.00
6028;BME280;3042;43.194;27.646;2024-02-15T02:39:50;102010.63;;;12.70;100.00
6028;BME280;3042;43.194;27.646;2024-02-15T02:42:19;101999.75;;;12.61;100.00
6028;BME280;3042;43.194;27.646;2024-02-15T02:44:46;102001.75;;;12.81;100.00
6028;BME280;3042;43.194;27.646;2024-02-15T02:47:13;102011.09;;;12.63;100.00
6028;BME280;3042;43.194;27.646;2024-02-15T02:49:41;102002.81;;;12.54;100.00
6028;BME280;3042;43.194;27.646;2024-02-15T02:52:09;101996.16;;;12.59;100.00
6028;BME280;3042;43.194;27.646;2024-02-15T02:54:36;101936.38;;;12.24;100.00
6028;BME280;3042;43.194;27.646;2024-02-15T02:57:03;101924.56;;;12.15;100.00
6028;BME280;3042;43.194;27.646;2024-02-15T02:59:34;101994.13;;;12.53;100.00
6028;BME280;3042;43.194;27.646;2024-02-15T03:02:05;101988.66;;;12.63;100.00
6028;BME280;3042;43.194;27.646;2024-02-15T03:04:33;101995.19;;;12.57;100.00
6028;BME280;3042;43.194;27.646;2024-02-15T03:07:00;101988.41;;;12.59;100.00
6028;BME280;3042;43.194;27.646;2024-02-15T03:09:28;101998.97;;;12.62;100.00
6028;BME280;3042;43.194;27.646;2024-02-15T03:11:55;101992.97;;;12.63;100.00
6028;BME280;3042;43.194;27.646;2024-02-15T03:14:23;101986.22;;;12.66;100.00
6028;BME280;3042;43.194;27.646;2024-02-15T03:16:52;101973.59;;;12.73;100.00
6028;BME280;3042;43.194;27.646;2024-02-15T03:19:21;101971.53;;;12.82;100.00
6028;BME280;3042;43.194;27.646;2024-02-15T03:21:49;101979.53;;;12.70;100.00
6028;BME280;3042;43.194;27.646;2024-02-15T03:24:18;101980.97;;;12.65;100.00
6028;BME280;3042;43.194;27.646;2024-02-15T03:26:46;101978.13;;;12.60;100.00
6028;BME280;3042;43.194;27.646;2024-02-15T03:29:13;101881.72;;;11.90;100.00
6028;BME280;3042;43.194;27.646;2024-02-15T03:31:40;101982.63;;;12.33;100.00
6028;BME280;3042;43.194;27.646;2024-02-15T03:34:09;101986.28;;;12.22;100.00
6028;BME280;3042;43.194;27.646;2024-02-15T03:36:36;101976.19;;;12.27;100.00
6028;BME280;3042;43.194;27.646;2024-02-15T03:39:04;101982.09;;;12.24;100.00
6028;BME280;3042;43.194;27.646;2024-02-15T03:41:33;101710.56;;;10.65;100.00
6028;BME280;3042;43.194;27.646;2024-02-15T03:44:00;101980.03;;;12.33;100.00
6028;BME280;3042;43.194;27.646;2024-02-15T03:46:27;101994.06;;;12.37;100.00
6028;BME280;3042;43.194;27.646;2024-02-15T03:48:54;101970.66;;;12.35;100.00
6028;BME280;3042;43.194;27.646;2024-02-15T03:51:24;101917.44;;;11.96;100.00
6028;BME280;3042;43.194;27.646;2024-02-15T03:53:51;101796.28;;;11.60;100.00
6028;BME280;3042;43.194;27.646;2024-02-15T03:56:19;101978.47;;;12.83;100.00
6028;BME280;3042;43.194;27.646;2024-02-15T03:58:46;101995.09;;;12.70;100.00
6028;BME280;3042;43.194;27.646;2024-02-15T04:01:16;101993.81;;;12.78;100.00
6028;BME280;3042;43.194;27.646;2024-02-15T04:03:43;101983.03;;;12.87;100.00
6028;BME280;3042;43.194;27.646;2024-02-15T04:06:10;101992.19;;;12.80;100.00
6028;BME280;3042;43.194;27.646;2024-02-15T04:08:39;101997.38;;;12.80;100.00
6028;BME280;3042;43.194;27.646;2024-02-15T04:11:06;101996.91;;;12.87;100.00
6028;BME280;3042;43.194;27.646;2024-02-15T04:13:38;101987.59;;;12.60;100.00
6028;BME280;3042;43.194;27.646;2024-02-15T04:16:05;101995.19;;;12.57;100.00
6028;BME280;3042;43.194;27.646;2024-02-15T04:18:33;101994.09;;;12.68;100.00
6028;BME280;3042;43.194;27.646;2024-02-15T04:21:00;101996.78;;;12.70;100.00
6028;BME280;3042;43.194;27.646;2024-02-15T04:23:27;101998.88;;;12.60;100.00
6028;BME280;3042;43.194;27.646;2024-02-15T04:25:56;101987.84;;;12.96;100.00
6028;BME280;3042;43.194;27.646;2024-02-15T04:28:25;101895.16;;;12.29;100.00
6028;BME280;3042;43.194;27.646;2024-02-15T04:30:52;101953.91;;;12.45;100.00
6028;BME280;3042;43.194;27.646;2024-02-15T04:33:21;101880.06;;;12.22;100.00
6028;BME280;3042;43.194;27.646;2024-02-15T04:35:48;101990.03;;;12.88;100.00
6028;BME280;3042;43.194;27.646;2024-02-15T04:38:17;101987.25;;;13.16;100.00
6028;BME280;3042;43.194;27.646;2024-02-15T04:40:44;101997.13;;;13.07;100.00
6028;BME280;3042;43.194;27.646;2024-02-15T04:43:13;102000.69;;;13.09;100.00
6028;BME280;3042;43.194;27.646;2024-02-15T04:45:41;102003.56;;;12.99;100.00
6028;BME280;3042;43.194;27.646;2024-02-15T04:48:08;101802.47;;;12.09;100.00
6028;BME280;3042;43.194;27.646;2024-02-15T04:50:36;101997.28;;;13.10;100.00
6028;BME280;3042;43.194;27.646;2024-02-15T04:53:03;101966.75;;;12.89;100.00
6028;BME280;3042;43.194;27.646;2024-02-15T04:55:32;102006.38;;;13.18;100.00
6028;BME280;3042;43.194;27.646;2024-02-15T04:58:01;102004.28;;;13.11;100.00
6028;BME280;3042;43.194;27.646;2024-02-15T05:00:31;102001.66;;;12.95;100.00
6028;BME280;3042;43.194;27.646;2024-02-15T05:02:58;102004.41;;;12.83;100.00
6028;BME280;3042;43.194;27.646;2024-02-15T05:05:25;101757.13;;;11.39;100.00
6028;BME280;3042;43.194;27.646;2024-02-15T05:07:55;101964.75;;;12.53;100.00
6028;BME280;3042;43.194;27.646;2024-02-15T05:10:23;102024.16;;;12.96;100.00
6028;BME280;3042;43.194;27.646;2024-02-15T05:12:51;102021.97;;;13.18;100.00
6028;BME280;3042;43.194;27.646;2024-02-15T05:15:19;102030.59;;;13.02;100.00
6028;BME280;3042;43.194;27.646;2024-02-15T05:17:51;101952.59;;;12.68;100.00
6028;BME280;3042;43.194;27.646;2024-02-15T05:20:19;102039.91;;;12.99;100.00
6028;BME280;3042;43.194;27.646;2024-02-15T05:22:47;102042.03;;;13.06;100.00
6028;BME280;3042;43.194;27.646;2024-02-15T05:25:14;102049.03;;;13.23;100.00
6028;BME280;3042;43.194;27.646;2024-02-15T05:27:41;102043.03;;;13.24;100.00
6028;BME280;3042;43.194;27.646;2024-02-15T05:30:11;101994.09;;;12.68;100.00
6028;BME280;3042;43.194;27.646;2024-02-15T05:32:38;102088.47;;;13.16;100.00
6028;BME280;3042;43.194;27.646;2024-02-15T05:35:11;101999.22;;;12.98;100.00
6028;BME280;3042;43.194;27.646;2024-02-15T05:37:38;101864.53;;;11.77;100.00
6028;BME280;3042;43.194;27.646;2024-02-15T05:40:06;102070.78;;;13.25;100.00
6028;BME280;3042;43.194;27.646;2024-02-15T05:42:41;101956.91;;;12.36;100.00
6028;BME280;3042;43.194;27.646;2024-02-15T05:45:30;101790.75;;;11.25;100.00
6028;BME280;3042;43.194;27.646;2024-02-15T05:48:04;102082.56;;;13.04;100.00
6028;BME280;3042;43.194;27.646;2024-02-15T05:50:35;102087.78;;;13.20;100.00
6028;BME280;3042;43.194;27.646;2024-02-15T05:53:03;102093.66;;;13.47;100.00
6028;BME280;3042;43.194;27.646;2024-02-15T05:55:30;102051.28;;;13.17;100.00
6028;BME280;3042;43.194;27.646;2024-02-15T05:57:59;102087.84;;;13.37;100.00
6028;BME280;3042;43.194;27.646;2024-02-15T06:00:27;102106.13;;;13.38;100.00
6028;BME280;3042;43.194;27.646;2024-02-15T06:02:55;101940.16;;;12.77;100.00
6028;BME280;3042;43.194;27.646;2024-02-15T06:05:22;102103.00;;;13.60;99.70
6028;BME280;3042;43.194;27.646;2024-02-15T06:07:51;102105.91;;;13.50;99.01
6028;BME280;3042;43.194;27.646;2024-02-15T06:10:19;102102.88;;;13.11;100.00
6028;BME280;3042;43.194;27.646;2024-02-15T06:12:46;102108.13;;;13.59;99.57
6028;BME280;3042;43.194;27.646;2024-02-15T06:15:13;102098.28;;;13.53;99.47
6028;BME280;3042;43.194;27.646;2024-02-15T06:17:42;102113.69;;;13.50;99.16
6028;BME280;3042;43.194;27.646;2024-02-15T06:20:12;102088.34;;;13.29;99.75
6028;BME280;3042;43.194;27.646;2024-02-15T06:22:43;102085.50;;;13.41;99.51
6028;BME280;3042;43.194;27.646;2024-02-15T06:25:12;102116.00;;;13.60;99.33
6028;BME280;3042;43.194;27.646;2024-02-15T06:27:40;102132.59;;;13.47;99.78
6028;BME280;3042;43.194;27.646;2024-02-15T06:30:09;102133.97;;;13.41;100.00
6028;BME280;3042;43.194;27.646;2024-02-15T06:32:53;102043.59;;;13.19;100.00
6028;BME280;3042;43.194;27.646;2024-02-15T06:35:38;102104.38;;;13.54;99.00
6028;BME280;3042;43.194;27.646;2024-02-15T06:38:23;101910.06;;;12.64;99.16
6028;BME280;3042;43.194;27.646;2024-02-15T06:41:09;102136.47;;;13.87;98.37
6028;BME280;3042;43.194;27.646;2024-02-15T06:43:36;102130.28;;;14.01;99.17
6028;BME280;3042;43.194;27.646;2024-02-15T06:46:06;102077.91;;;13.44;97.76
6028;BME280;3042;43.194;27.646;2024-02-15T06:48:33;102139.41;;;13.77;99.10
6028;BME280;3042;43.194;27.646;2024-02-15T06:51:00;102142.47;;;14.02;98.80
6028;BME280;3042;43.194;27.646;2024-02-15T06:53:29;102148.44;;;13.52;98.86
6028;BME280;3042;43.194;27.646;2024-02-15T06:55:56;102145.88;;;13.68;99.31
6028;BME280;3042;43.194;27.646;2024-02-15T06:58:25;102142.63;;;13.72;98.88
6028;BME280;3042;43.194;27.646;2024-02-15T07:00:52;101961.56;;;12.89;98.80
6028;BME280;3042;43.194;27.646;2024-02-15T07:03:20;102145.88;;;14.01;97.91
6028;BME280;3042;43.194;27.646;2024-02-15T07:05:48;102064.69;;;13.40;98.21
6028;BME280;3042;43.194;27.646;2024-02-15T07:08:15;102148.38;;;14.00;98.85
6028;BME280;3042;43.194;27.646;2024-02-15T07:10:42;102137.59;;;13.76;98.04
6028;BME280;3042;43.194;27.646;2024-02-15T07:13:10;102152.69;;;13.83;97.87
6028;BME280;3042;43.194;27.646;2024-02-15T07:15:38;102002.03;;;13.34;97.28
6028;BME280;3042;43.194;27.646;2024-02-15T07:18:06;102145.22;;;14.38;97.06
6028;BME280;3042;43.194;27.646;2024-02-15T07:20:33;102143.94;;;13.97;96.34
6028;BME280;3042;43.194;27.646;2024-02-15T07:23:01;102120.72;;;13.84;96.56
6028;BME280;3042;43.194;27.646;2024-02-15T07:25:29;102137.75;;;14.11;95.82
6028;BME280;3042;43.194;27.646;2024-02-15T07:27:56;102141.03;;;14.07;95.79
6028;BME280;3042;43.194;27.646;2024-02-15T07:30:24;102145.53;;;13.79;96.36
6028;BME280;3042;43.194;27.646;2024-02-15T07:32:53;102151.06;;;13.85;96.33
6028;BME280;3042;43.194;27.646;2024-02-15T07:35:20;102151.91;;;13.84;96.42
6028;BME280;3042;43.194;27.646;2024-02-15T07:37:54;102155.44;;;13.69;96.27
6028;BME280;3042;43.194;27.646;2024-02-15T07:40:24;102151.56;;;13.94;96.18
6028;BME280;3042;43.194;27.646;2024-02-15T07:42:56;102143.28;;;14.18;95.38
6028;BME280;3042;43.194;27.646;2024-02-15T07:45:23;102143.44;;;14.04;94.81
6028;BME280;3042;43.194;27.646;2024-02-15T07:47:50;102097.56;;;13.56;95.22
6028;BME280;3042;43.194;27.646;2024-02-15T07:50:22;102148.63;;;13.88;95.85
6028;BME280;3042;43.194;27.646;2024-02-15T07:52:49;102132.06;;;13.69;95.84
6028;BME280;3042;43.194;27.646;2024-02-15T07:55:16;102136.44;;;13.54;95.58
6028;BME280;3042;43.194;27.646;2024-02-15T07:57:44;102138.94;;;13.52;95.75
6028;BME280;3042;43.194;27.646;2024-02-15T08:00:14;102147.91;;;13.43;96.40
6028;BME280;3042;43.194;27.646;2024-02-15T08:02:42;102130.22;;;13.36;95.84
6028;BME280;3042;43.194;27.646;2024-02-15T08:05:10;102114.47;;;13.80;95.41
6028;BME280;3042;43.194;27.646;2024-02-15T08:07:41;102116.66;;;14.05;95.69
6028;BME280;3042;43.194;27.646;2024-02-15T08:10:09;102030.75;;;13.53;94.91
6028;BME280;3042;43.194;27.646;2024-02-15T08:12:39;102126.38;;;13.60;94.93
6028;BME280;3042;43.194;27.646;2024-02-15T08:15:07;102118.53;;;13.91;94.86
6028;BME280;3042;43.194;27.646;2024-02-15T08:17:38;102117.78;;;13.61;95.40
6028;BME280;3042;43.194;27.646;2024-02-15T08:20:07;102068.75;;;13.67;94.22
6028;BME280;3042;43.194;27.646;2024-02-15T08:22:35;102034.31;;;13.55;94.25
6028;BME280;3042;43.194;27.646;2024-02-15T08:25:07;102102.16;;;14.27;94.33
6028;BME280;3042;43.194;27.646;2024-02-15T08:27:37;102098.97;;;13.98;93.58
6028;BME280;3042;43.194;27.646;2024-02-15T08:30:09;102040.19;;;13.35;94.42
6028;BME280;3042;43.194;27.646;2024-02-15T08:32:37;102102.03;;;14.07;94.39
6028;BME280;3042;43.194;27.646;2024-02-15T08:35:06;102088.72;;;14.01;93.50
6028;BME280;3042;43.194;27.646;2024-02-15T08:37:34;102114.22;;;13.92;93.78
6028;BME280;3042;43.194;27.646;2024-02-15T08:40:02;102097.97;;;13.80;93.07
6028;BME280;3042;43.194;27.646;2024-02-15T08:42:31;102111.75;;;14.11;93.45
6028;BME280;3042;43.194;27.646;2024-02-15T08:44:59;102068.41;;;13.94;92.45
6028;BME280;3042;43.194;27.646;2024-02-15T08:47:26;102106.72;;;14.31;92.86
6028;BME280;3042;43.194;27.646;2024-02-15T08:49:53;102099.59;;;14.10;92.67
6028;BME280;3042;43.194;27.646;2024-02-15T08:52:21;102105.09;;;14.33;92.78
6028;BME280;3042;43.194;27.646;2024-02-15T08:54:48;102089.00;;;14.24;93.33
6028;BME280;3042;43.194;27.646;2024-02-15T08:57:15;102077.81;;;14.08;92.51
6028;BME280;3042;43.194;27.646;2024-02-15T08:59:46;102076.91;;;14.24;92.14
6028;BME280;3042;43.194;27.646;2024-02-15T09:02:13;102070.03;;;14.08;92.98
6028;BME280;3042;43.194;27.646;2024-02-15T09:04:41;102066.38;;;14.39;93.08
6028;BME280;3042;43.194;27.646;2024-02-15T09:07:08;101862.84;;;13.03;93.03
6028;BME280;3042;43.194;27.646;2024-02-15T09:09:36;101988.72;;;13.77;93.31
6028;BME280;3042;43.194;27.646;2024-02-15T09:12:04;102050.56;;;14.00;93.54
6028;BME280;3042;43.194;27.646;2024-02-15T09:14:31;101916.13;;;13.29;93.88
6028;BME280;3042;43.194;27.646;2024-02-15T09:17:00;102058.09;;;14.12;93.50
6028;BME280;3042;43.194;27.646;2024-02-15T09:19:32;102057.91;;;14.09;93.26
6028;BME280;3042;43.194;27.646;2024-02-15T09:22:00;102052.94;;;14.13;93.40
6028;BME280;3042;43.194;27.646;2024-02-15T09:24:27;102051.75;;;14.41;93.70
6028;BME280;3042;43.194;27.646;2024-02-15T09:26:54;102059.91;;;14.49;92.30
6028;BME280;3042;43.194;27.646;2024-02-15T09:29:21;102066.50;;;14.24;93.40
6028;BME280;3042;43.194;27.646;2024-02-15T09:31:50;102071.44;;;14.36;92.95
6028;BME280;3042;43.194;27.646;2024-02-15T09:34:20;102065.69;;;14.60;93.25
6028;BME280;3042;43.194;27.646;2024-02-15T09:36:47;102071.63;;;14.23;93.39
6028;BME280;3042;43.194;27.646;2024-02-15T09:39:14;102068.97;;;14.39;92.85
6028;BME280;3042;43.194;27.646;2024-02-15T09:41:43;102019.66;;;14.06;92.77
6028;BME280;3042;43.194;27.646;2024-02-15T09:44:10;102077.88;;;14.26;93.19
6028;BME280;3042;43.194;27.646;2024-02-15T09:46:43;102061.69;;;14.32;92.94
6028;BME280;3042;43.194;27.646;2024-02-15T09:49:12;101887.50;;;13.44;93.09
6028;BME280;3042;43.194;27.646;2024-02-15T09:51:42;102051.84;;;14.61;92.75
6028;BME280;3042;43.194;27.646;2024-02-15T09:54:10;102055.63;;;14.49;92.69
6028;BME280;3042;43.194;27.646;2024-02-15T09:56:40;101813.00;;;13.26;92.57
6028;BME280;3042;43.194;27.646;2024-02-15T09:59:08;102049.13;;;14.41;92.45
6028;BME280;3042;43.194;27.646;2024-02-15T10:01:36;102048.97;;;14.90;92.09
6028;BME280;3042;43.194;27.646;2024-02-15T10:04:06;102062.38;;;14.80;91.50
6028;BME280;3042;43.194;27.646;2024-02-15T10:06:34;102011.72;;;14.55;90.45
6028;BME280;3042;43.194;27.646;2024-02-15T10:09:27;102059.91;;;15.01;90.97
6028;BME280;3042;43.194;27.646;2024-02-15T10:11:55;102037.75;;;14.91;91.01
6028;BME280;3042;43.194;27.646;2024-02-15T10:14:23;102061.97;;;14.90;90.33
6028;BME280;3042;43.194;27.646;2024-02-15T10:16:51;101953.97;;;14.63;90.46
6028;BME280;3042;43.194;27.646;2024-02-15T10:19:20;101994.19;;;14.69;90.22
6028;BME280;3042;43.194;27.646;2024-02-15T10:21:51;101796.84;;;13.66;90.67
6028;BME280;3042;43.194;27.646;2024-02-15T10:24:21;101880.38;;;14.10;89.50
6028;BME280;3042;43.194;27.646;2024-02-15T10:26:51;101988.22;;;14.36;90.76
6028;BME280;3042;43.194;27.646;2024-02-15T10:29:19;102065.88;;;15.55;90.37
6028;BME280;3042;43.194;27.646;2024-02-15T10:31:54;102055.69;;;15.23;89.99
6028;BME280;3042;43.194;27.646;2024-02-15T10:34:21;102054.50;;;15.34;90.67
6028;BME280;3042;43.194;27.646;2024-02-15T10:36:50;102012.97;;;14.99;89.54
6028;BME280;3042;43.194;27.646;2024-02-15T10:39:17;101913.78;;;14.38;89.76
6028;BME280;3042;43.194;27.646;2024-02-15T10:41:46;102057.97;;;15.54;89.53
6028;BME280;3042;43.194;27.646;2024-02-15T10:44:19;102024.75;;;15.48;87.83
6028;BME280;3042;43.194;27.646;2024-02-15T10:46:47;102043.22;;;15.72;88.62
6028;BME280;3042;43.194;27.646;2024-02-15T10:49:19;101960.97;;;15.40;88.39
6028;BME280;3042;43.194;27.646;2024-02-15T10:51:50;101914.13;;;15.01;87.82
6028;BME280;3042;43.194;27.646;2024-02-15T10:54:42;102044.56;;;15.64;87.30
6028;BME280;3042;43.194;27.646;2024-02-15T10:57:12;102035.63;;;15.59;88.38
6028;BME280;3042;43.194;27.646;2024-02-15T10:59:47;102040.19;;;15.82;88.81
6028;BME280;3042;43.194;27.646;2024-02-15T11:02:26;101869.56;;;15.34;88.33
6028;BME280;3042;43.194;27.646;2024-02-15T11:04:58;101891.75;;;15.66;87.04
6028;BME280;3042;43.194;27.646;2024-02-15T11:07:29;102005.13;;;16.16;86.77
6028;BME280;3042;43.194;27.646;2024-02-15T11:09:58;101920.22;;;15.40;87.13
6028;BME280;3042;43.194;27.646;2024-02-15T11:12:26;101990.88;;;16.08;87.66
6028;BME280;3042;43.194;27.646;2024-02-15T11:14:55;102029.00;;;16.25;87.32
6028;BME280;3042;43.194;27.646;2024-02-15T11:17:47;102016.38;;;16.36;86.69
6028;BME280;3042;43.194;27.646;2024-02-15T11:20:49;102015.00;;;16.23;86.88
6028;BME280;3042;43.194;27.646;2024-02-15T11:23:33;102003.72;;;16.45;87.33
6028;BME280;3042;43.194;27.646;2024-02-15T11:26:01;101996.53;;;16.40;87.20
6028;BME280;3042;43.194;27.646;2024-02-15T11:28:39;101958.94;;;16.35;87.77
6028;BME280;3042;43.194;27.646;2024-02-15T11:31:09;101952.47;;;16.25;88.39
6028;BME280;3042;43.194;27.646;2024-02-15T11:33:38;101913.75;;;16.36;87.77
6028;BME280;3042;43.194;27.646;2024-02-15T11:36:06;101972.16;;;16.60;86.52
6028;BME280;3042;43.194;27.646;2024-02-15T11:38:34;101997.00;;;16.30;87.43
6028;BME280;3042;43.194;27.646;2024-02-15T11:41:03;101843.22;;;15.68;87.98
6028;BME280;3042;43.194;27.646;2024-02-15T11:43:50;101978.25;;;16.82;87.85
6028;BME280;3042;43.194;27.646;2024-02-15T11:46:27;101916.41;;;16.58;87.42
6028;BME280;3042;43.194;27.646;2024-02-15T11:48:59;101967.63;;;17.24;86.77
6028;BME280;3042;43.194;27.646;2024-02-15T11:51:30;101964.50;;;17.10;85.58
6028;BME280;3042;43.194;27.646;2024-02-15T11:54:03;101967.84;;;17.30;85.38
6028;BME280;3042;43.194;27.646;2024-02-15T11:56:50;101964.94;;;17.22;85.17
6028;BME280;3042;43.194;27.646;2024-02-15T11:59:20;101958.13;;;17.26;84.66
6028;BME280;3042;43.194;27.646;2024-02-15T12:01:59;101950.50;;;17.32;85.23
6028;BME280;3042;43.194;27.646;2024-02-15T12:04:43;101947.94;;;17.09;84.95
6028;BME280;3042;43.194;27.646;2024-02-15T12:07:28;101946.06;;;17.05;85.27
6028;BME280;3042;43.194;27.646;2024-02-15T12:10:16;101933.50;;;17.19;85.59
6028;BME280;3042;43.194;27.646;2024-02-15T12:13:01;101927.06;;;17.09;86.81
6028;BME280;3042;43.194;27.646;2024-02-15T12:15:56;101918.63;;;17.17;87.96
6028;BME280;3042;43.194;27.646;2024-02-15T12:18:43;101934.50;;;17.23;87.56
6028;BME280;3042;43.194;27.646;2024-02-15T12:21:14;101818.00;;;16.56;87.71
6028;BME280;3042;43.194;27.646;2024-02-15T12:23:43;101942.41;;;17.24;88.32
6028;BME280;3042;43.194;27.646;2024-02-15T12:26:11;101837.31;;;16.37;88.46
6028;BME280;3042;43.194;27.646;2024-02-15T12:28:40;101911.47;;;16.88;88.58
6028;BME280;3042;43.194;27.646;2024-02-15T12:31:09;101944.28;;;17.04;88.83
6028;BME280;3042;43.194;27.646;2024-02-15T12:33:39;101940.59;;;16.99;88.54
6028;BME280;3042;43.194;27.646;2024-02-15T12:36:08;101947.78;;;16.82;88.31
6028;BME280;3042;43.194;27.646;2024-02-15T12:38:35;101945.16;;;17.05;89.10
6028;BME280;3042;43.194;27.646;2024-02-15T12:41:04;101845.22;;;16.62;87.81
6028;BME280;3042;43.194;27.646;2024-02-15T12:43:44;101943.53;;;17.08;88.22
6028;BME280;3042;43.194;27.646;2024-02-15T12:46:11;101952.16;;;17.30;88.14
6028;BME280;3042;43.194;27.646;2024-02-15T12:48:39;101919.69;;;16.99;87.33
6028;BME280;3042;43.194;27.646;2024-02-15T12:51:14;101945.63;;;17.17;87.36
6028;BME280;3042;43.194;27.646;2024-02-15T12:53:42;101940.47;;;16.96;87.09
6028;BME280;3042;43.194;27.646;2024-02-15T12:56:09;101775.19;;;16.04;87.54
6028;BME280;3042;43.194;27.646;2024-02-15T12:58:37;101948.03;;;17.35;88.20
6028;BME280;3042;43.194;27.646;2024-02-15T13:01:04;101940.53;;;17.70;87.48
6028;BME280;3042;43.194;27.646;2024-02-15T13:03:32;101934.94;;;18.10;86.50
6028;BME280;3042;43.194;27.646;2024-02-15T13:05:59;101844.63;;;17.69;85.66
6028;BME280;3042;43.194;27.646;2024-02-15T13:08:27;101895.25;;;17.45;84.51